sensor_id;sensor_type;location;lat;lon;timestamp;pressure;altitude;pressure_sealevel;temperature;humidity
82858;BME280;72620;47.774;9.620;2024-03-07T00:00:43;96732.59;;;3.79;91.26
82858;BME280;72620;47.774;9.620;2024-03-07T00:03:10;96728.44;;;3.78;91.61
82858;BME280;72620;47.774;9.620;2024-03-07T00:05:37;96728.00;;;3.71;91.25
82858;BME280;72620;47.774;9.620;2024-03-07T00:08:05;96727.41;;;3.67;93.17
82858;BME280;72620;47.774;9.620;2024-03-07T00:10:33;96728.91;;;3.70;91.85
82858;BME280;72620;47.774;9.620;2024-03-07T00:13:03;96724.66;;;3.71;92.14
82858;BME280;72620;47.774;9.620;2024-03-07T00:15:30;96726.00;;;3.76;91.66
82858;BME280;72620;47.774;9.620;2024-03-07T00:17:57;96727.53;;;3.79;92.08
82858;BME280;72620;47.774;9.620;2024-03-07T00:20:25;96731.69;;;3.80;92.03
82858;BME280;72620;47.774;9.620;2024-03-07T00:22:53;96727.22;;;3.83;92.65
82858;BME280;72620;47.774;9.620;2024-03-07T00:25:23;96736.34;;;3.86;91.44
82858;BME280;72620;47.774;9.620;2024-03-07T00:27:50;96732.31;;;3.83;92.01
82858;BME280;72620;47.774;9.620;2024-03-07T00:30:19;96733.09;;;3.84;91.44
82858;BME280;72620;47.774;9.620;2024-03-07T00:32:47;96723.66;;;3.86;90.77
82858;BME280;72620;47.774;9.620;2024-03-07T00:35:15;96736.34;;;3.86;90.50
82858;BME280;72620;47.774;9.620;2024-03-07T00:37:42;96731.91;;;3.89;90.21
82858;BME280;72620;47.774;9.620;2024-03-07T00:40:10;96723.59;;;3.87;89.42
82858;BME280;72620;47.774;9.620;2024-03-07T00:42:37;96732.09;;;3.86;89.71
82858;BME280;72620;47.774;9.620;2024-03-07T00:45:05;96727.84;;;3.87;89.78
82858;BME280;72620;47.774;9.620;2024-03-07T00:47:33;96730.28;;;3.88;89.20
82858;BME280;72620;47.774;9.620;2024-03-07T00:50:00;96729.38;;;3.89;89.64
82858;BME280;72620;47.774;9.620;2024-03-07T00:52:28;96730.19;;;3.90;90.32
82858;BME280;72620;47.774;9.620;2024-03-07T00:54:55;96727.53;;;3.91;89.84
82858;BME280;72620;47.774;9.620;2024-03-07T00:57:22;96732.72;;;3.90;90.46
82858;BME280;72620;47.774;9.620;2024-03-07T00:59:49;96724.19;;;3.91;89.85
82858;BME280;72620;47.774;9.620;2024-03-07T01:02:16;96716.56;;;3.91;89.46
82858;BME280;72620;47.774;9.620;2024-03-07T01:04:44;96717.50;;;3.90;89.63
82858;BME280;72620;47.774;9.620;2024-03-07T01:07:11;96718.41;;;3.89;90.20
82858;BME280;72620;47.774;9.620;2024-03-07T01:09:38;96721.34;;;3.83;90.11
82858;BME280;72620;47.774;9.620;2024-03-07T01:12:06;96713.72;;;3.83;91.07
82858;BME280;72620;47.774;9.620;2024-03-07T01:14:33;96710.78;;;3.89;91.01
82858;BME280;72620;47.774;9.620;2024-03-07T01:17:00;96709.59;;;3.94;95.72
82858;BME280;72620;47.774;9.620;2024-03-07T01:19:27;96705.09;;;3.98;90.85
82858;BME280;72620;47.774;9.620;2024-03-07T01:21:54;96706.13;;;3.95;88.94
82858;BME280;72620;47.774;9.620;2024-03-07T01:24:22;96700.22;;;3.95;90.15
82858;BME280;72620;47.774;9.620;2024-03-07T01:26:49;96705.41;;;3.93;89.80
82858;BME280;72620;47.774;9.620;2024-03-07T01:29:16;96689.34;;;3.93;90.06
82858;BME280;72620;47.774;9.620;2024-03-07T01:31:44;96685.19;;;3.92;89.71
82858;BME280;72620;47.774;9.620;2024-03-07T01:34:11;96680.13;;;3.92;89.87
82858;BME280;72620;47.774;9.620;2024-03-07T01:36:38;96687.94;;;3.89;90.87
82858;BME280;72620;47.774;9.620;2024-03-07T01:39:05;96679.41;;;3.90;90.24
82858;BME280;72620;47.774;9.620;2024-03-07T01:41:33;96680.31;;;3.89;90.71
82858;BME280;72620;47.774;9.620;2024-03-07T01:44:01;96674.53;;;3.87;90.47
82858;BME280;72620;47.774;9.620;2024-03-07T01:46:29;96666.19;;;3.85;91.05
82858;BME280;72620;47.774;9.620;2024-03-07T01:48:58;96671.38;;;3.83;90.77
82858;BME280;72620;47.774;9.620;2024-03-07T01:51:26;96661.00;;;3.86;90.71
82858;BME280;72620;47.774;9.620;2024-03-07T01:53:54;96656.94;;;3.84;90.41
82858;BME280;72620;47.774;9.620;2024-03-07T01:56:22;96655.50;;;3.80;90.63
82858;BME280;72620;47.774;9.620;2024-03-07T01:58:51;96654.69;;;3.79;91.03
82858;BME280;72620;47.774;9.620;2024-03-07T02:01:22;96660.59;;;3.80;91.74
82858;BME280;72620;47.774;9.620;2024-03-07T02:03:50;96666.38;;;3.82;90.90
82858;BME280;72620;47.774;9.620;2024-03-07T02:06:17;96659.69;;;3.81;89.99
82858;BME280;72620;47.774;9.620;2024-03-07T02:08:44;96652.88;;;3.81;90.95
82858;BME280;72620;47.774;9.620;2024-03-07T02:11:11;96658.06;;;3.80;91.41
82858;BME280;72620;47.774;9.620;2024-03-07T02:13:40;96649.44;;;3.82;90.20
82858;BME280;72620;47.774;9.620;2024-03-07T02:16:07;96652.16;;;3.79;90.53
82858;BME280;72620;47.774;9.620;2024-03-07T02:18:36;96654.91;;;3.76;90.71
82858;BME280;72620;47.774;9.620;2024-03-07T02:21:08;96648.09;;;3.77;90.75
82858;BME280;72620;47.774;9.620;2024-03-07T02:23:38;96648.00;;;3.78;89.74
82858;BME280;72620;47.774;9.620;2024-03-07T02:26:05;96648.00;;;3.78;90.30
82858;BME280;72620;47.774;9.620;2024-03-07T02:28:34;96649.03;;;3.76;91.55
82858;BME280;72620;47.774;9.620;2024-03-07T02:31:01;96646.59;;;3.74;91.28
82858;BME280;72620;47.774;9.620;2024-03-07T02:33:28;96651.66;;;3.74;91.17
82858;BME280;72620;47.774;9.620;2024-03-07T02:35:59;96645.56;;;3.77;90.88
82858;BME280;72620;47.774;9.620;2024-03-07T02:38:26;96637.16;;;3.76;91.52
82858;BME280;72620;47.774;9.620;2024-03-07T02:40:53;96637.94;;;3.77;92.40
82858;BME280;72620;47.774;9.620;2024-03-07T02:43:20;96633.78;;;3.76;91.98
82858;BME280;72620;47.774;9.620;2024-03-07T02:45:48;96634.50;;;3.78;91.83
82858;BME280;72620;47.774;9.620;2024-03-07T02:48:16;96634.31;;;3.81;90.71
82858;BME280;72620;47.774;9.620;2024-03-07T02:50:45;96639.09;;;3.85;90.79
82858;BME280;72620;47.774;9.620;2024-03-07T02:53:12;96638.66;;;3.91;90.73
82858;BME280;72620;47.774;9.620;2024-03-07T02:55:40;96631.16;;;3.90;90.10
82858;BME280;72620;47.774;9.620;2024-03-07T02:58:08;96628.72;;;3.88;90.55
82858;BME280;72620;47.774;9.620;2024-03-07T03:00:35;96624.63;;;3.86;90.19
82858;BME280;72620;47.774;9.620;2024-03-07T03:03:02;96628.63;;;3.90;90.36
82858;BME280;72620;47.774;9.620;2024-03-07T03:05:30;96625.97;;;3.91;90.10
82858;BME280;72620;47.774;9.620;2024-03-07T03:07:57;96617.75;;;3.88;90.63
82858;BME280;72620;47.774;9.620;2024-03-07T03:10:25;96621.09;;;3.88;90.76
82858;BME280;72620;47.774;9.620;2024-03-07T03:12:56;96617.03;;;3.86;89.83
82858;BME280;72620;47.774;9.620;2024-03-07T03:15:28;96619.66;;;3.84;90.55
82858;BME280;72620;47.774;9.620;2024-03-07T03:17:57;96616.53;;;3.81;90.61
82858;BME280;72620;47.774;9.620;2024-03-07T03:20:30;96619.78;;;3.83;91.24
82858;BME280;72620;47.774;9.620;2024-03-07T03:23:02;96618.78;;;3.85;91.92
82858;BME280;72620;47.774;9.620;2024-03-07T03:25:45;96612.69;;;3.88;91.80
82858;BME280;72620;47.774;9.620;2024-03-07T03:28:16;96614.28;;;3.89;91.66
82858;BME280;72620;47.774;9.620;2024-03-07T03:30:47;96614.19;;;3.90;91.94
82858;BME280;72620;47.774;9.620;2024-03-07T03:33:15;96615.22;;;3.88;91.36
82858;BME280;72620;47.774;9.620;2024-03-07T03:35:43;96615.00;;;3.91;91.12
82858;BME280;72620;47.774;9.620;2024-03-07T03:38:11;96622.09;;;3.86;91.62
82858;BME280;72620;47.774;9.620;2024-03-07T03:40:41;96617.13;;;3.84;91.51
82858;BME280;72620;47.774;9.620;2024-03-07T03:43:10;96612.47;;;3.78;93.06
82858;BME280;72620;47.774;9.620;2024-03-07T03:45:37;96605.97;;;3.74;92.56
82858;BME280;72620;47.774;9.620;2024-03-07T03:48:04;96603.84;;;3.81;91.57
82858;BME280;72620;47.774;9.620;2024-03-07T03:50:32;96601.09;;;3.84;91.05
82858;BME280;72620;47.774;9.620;2024-03-07T03:52:59;96601.31;;;3.81;91.40
82858;BME280;72620;47.774;9.620;2024-03-07T03:55:28;96596.13;;;3.82;91.53
82858;BME280;72620;47.774;9.620;2024-03-07T03:57:57;96596.94;;;3.83;92.06
82858;BME280;72620;47.774;9.620;2024-03-07T04:00:24;96596.94;;;3.83;92.03
82858;BME280;72620;47.774;9.620;2024-03-07T04:02:51;96595.22;;;3.83;91.83
82858;BME280;72620;47.774;9.620;2024-03-07T04:05:20;96597.94;;;3.80;91.93
82858;BME280;72620;47.774;9.620;2024-03-07T04:07:48;96592.16;;;3.78;91.39
82858;BME280;72620;47.774;9.620;2024-03-07T04:10:17;96601.50;;;3.78;90.96
82858;BME280;72620;47.774;9.620;2024-03-07T04:12:45;96597.00;;;3.81;91.31
82858;BME280;72620;47.774;9.620;2024-03-07T04:15:15;96599.56;;;3.81;91.45
82858;BME280;72620;47.774;9.620;2024-03-07T04:17:46;96596.94;;;3.83;91.24
82858;BME280;72620;47.774;9.620;2024-03-07T04:20:15;96595.00;;;3.86;91.64
82858;BME280;72620;47.774;9.620;2024-03-07T04:22:45;96599.34;;;3.84;92.37
82858;BME280;72620;47.774;9.620;2024-03-07T04:25:13;96597.94;;;3.80;91.81
82858;BME280;72620;47.774;9.620;2024-03-07T04:27:41;96597.84;;;3.82;92.43
82858;BME280;72620;47.774;9.620;2024-03-07T04:30:09;96594.59;;;3.80;92.23
82858;BME280;72620;47.774;9.620;2024-03-07T04:32:37;96585.13;;;3.82;91.74
82858;BME280;72620;47.774;9.620;2024-03-07T04:35:06;96586.06;;;3.81;91.83
82858;BME280;72620;47.774;9.620;2024-03-07T04:37:35;96588.50;;;3.82;92.51
82858;BME280;72620;47.774;9.620;2024-03-07T04:40:07;96580.16;;;3.80;92.05
82858;BME280;72620;47.774;9.620;2024-03-07T04:42:47;96573.25;;;3.82;91.49
82858;BME280;72620;47.774;9.620;2024-03-07T04:45:17;96577.75;;;3.79;91.13
82858;BME280;72620;47.774;9.620;2024-03-07T04:47:46;96582.81;;;3.79;91.83
82858;BME280;72620;47.774;9.620;2024-03-07T04:50:15;96582.81;;;3.79;91.83
82858;BME280;72620;47.774;9.620;2024-03-07T04:52:45;96579.34;;;3.80;91.40
82858;BME280;72620;47.774;9.620;2024-03-07T04:55:14;96575.91;;;3.81;91.40
82858;BME280;72620;47.774;9.620;2024-03-07T04:57:42;96574.09;;;3.83;91.26
82858;BME280;72620;47.774;9.620;2024-03-07T05:00:13;96577.75;;;3.79;91.31
82858;BME280;72620;47.774;9.620;2024-03-07T05:02:45;96580.16;;;3.80;91.24
82858;BME280;72620;47.774;9.620;2024-03-07T05:05:14;96577.75;;;3.79;91.56
82858;BME280;72620;47.774;9.620;2024-03-07T05:07:41;96576.00;;;3.79;91.02
82858;BME280;72620;47.774;9.620;2024-03-07T05:10:09;96577.75;;;3.79;91.82
82858;BME280;72620;47.774;9.620;2024-03-07T05:12:36;96581.69;;;3.83;91.20
82858;BME280;72620;47.774;9.620;2024-03-07T05:15:07;96585.97;;;3.82;91.76
82858;BME280;72620;47.774;9.620;2024-03-07T05:17:37;96582.53;;;3.83;91.83
82858;BME280;72620;47.774;9.620;2024-03-07T05:20:06;96575.69;;;3.84;91.07
82858;BME280;72620;47.774;9.620;2024-03-07T05:22:38;96580.06;;;3.82;90.83
82858;BME280;72620;47.774;9.620;2024-03-07T05:25:18;96574.28;;;3.80;91.44
82858;BME280;72620;47.774;9.620;2024-03-07T05:27:46;96575.91;;;3.81;90.84
82858;BME280;72620;47.774;9.620;2024-03-07T05:30:13;96579.03;;;3.84;91.43
82858;BME280;72620;47.774;9.620;2024-03-07T05:32:42;96577.31;;;3.85;90.60
82858;BME280;72620;47.774;9.620;2024-03-07T05:35:10;96574.47;;;3.89;90.81
82858;BME280;72620;47.774;9.620;2024-03-07T05:37:38;96572.97;;;3.87;90.26
82858;BME280;72620;47.774;9.620;2024-03-07T05:40:08;96579.34;;;3.80;90.52
82858;BME280;72620;47.774;9.620;2024-03-07T05:42:36;96582.59;;;3.82;90.68
82858;BME280;72620;47.774;9.620;2024-03-07T05:45:03;96579.25;;;3.81;90.70
82858;BME280;72620;47.774;9.620;2024-03-07T05:47:34;96570.84;;;3.81;90.75
82858;BME280;72620;47.774;9.620;2024-03-07T05:50:02;96583.31;;;3.84;90.36
82858;BME280;72620;47.774;9.620;2024-03-07T05:52:30;96582.59;;;3.82;90.25
82858;BME280;72620;47.774;9.620;2024-03-07T05:54:57;96580.78;;;3.84;90.40
82858;BME280;72620;47.774;9.620;2024-03-07T05:57:24;96577.31;;;3.85;89.96
82858;BME280;72620;47.774;9.620;2024-03-07T05:59:52;96585.66;;;3.87;90.81
82858;BME280;72620;47.774;9.620;2024-03-07T06:02:19;96579.56;;;3.89;90.16
82858;BME280;72620;47.774;9.620;2024-03-07T06:04:47;96576.31;;;3.87;89.99
82858;BME280;72620;47.774;9.620;2024-03-07T06:07:14;96573.78;;;3.87;89.18
82858;BME280;72620;47.774;9.620;2024-03-07T06:09:41;96580.38;;;3.90;90.21
82858;BME280;72620;47.774;9.620;2024-03-07T06:12:10;96581.78;;;3.94;89.69
82858;BME280;72620;47.774;9.620;2024-03-07T06:14:48;96568.09;;;3.96;90.08
82858;BME280;72620;47.774;9.620;2024-03-07T06:17:16;96580.34;;;4.02;90.46
82858;BME280;72620;47.774;9.620;2024-03-07T06:19:48;96573.25;;;4.07;89.43
82858;BME280;72620;47.774;9.620;2024-03-07T06:22:15;96570.91;;;4.04;90.64
82858;BME280;72620;47.774;9.620;2024-03-07T06:24:43;96569.88;;;4.07;90.54
82858;BME280;72620;47.774;9.620;2024-03-07T06:27:10;96571.41;;;4.09;88.89
82858;BME280;72620;47.774;9.620;2024-03-07T06:29:54;96563.91;;;4.08;88.58
82858;BME280;72620;47.774;9.620;2024-03-07T06:32:21;96574.88;;;3.96;89.50
82858;BME280;72620;47.774;9.620;2024-03-07T06:34:49;96569.81;;;3.96;89.22
82858;BME280;72620;47.774;9.620;2024-03-07T06:37:19;96565.63;;;3.95;89.21
82858;BME280;72620;47.774;9.620;2024-03-07T06:39:46;96561.88;;;4.00;89.86
82858;BME280;72620;47.774;9.620;2024-03-07T06:42:14;96559.72;;;4.07;90.00
82858;BME280;72620;47.774;9.620;2024-03-07T06:44:42;96554.84;;;4.16;88.51
82858;BME280;72620;47.774;9.620;2024-03-07T06:47:10;96549.03;;;4.27;88.69
82858;BME280;72620;47.774;9.620;2024-03-07T06:49:39;96559.47;;;4.35;88.49
82858;BME280;72620;47.774;9.620;2024-03-07T06:52:10;96558.94;;;4.43;88.24
82858;BME280;72620;47.774;9.620;2024-03-07T06:54:37;96565.81;;;4.53;88.36
82858;BME280;72620;47.774;9.620;2024-03-07T06:57:04;96558.09;;;4.55;88.48
82858;BME280;72620;47.774;9.620;2024-03-07T06:59:31;96558.09;;;4.55;88.48
82858;BME280;72620;47.774;9.620;2024-03-07T07:01:58;96555.94;;;4.61;88.02
82858;BME280;72620;47.774;9.620;2024-03-07T07:04:25;96557.66;;;4.61;88.72
82858;BME280;72620;47.774;9.620;2024-03-07T07:06:58;96555.69;;;4.64;88.51
82858;BME280;72620;47.774;9.620;2024-03-07T07:09:25;96554.09;;;4.63;85.70
82858;BME280;72620;47.774;9.620;2024-03-07T07:11:52;96551.34;;;4.66;85.52
82858;BME280;72620;47.774;9.620;2024-03-07T07:14:25;96559.44;;;4.71;84.39
82858;BME280;72620;47.774;9.620;2024-03-07T07:16:52;96554.31;;;4.84;86.24
82858;BME280;72620;47.774;9.620;2024-03-07T07:19:19;96564.88;;;4.90;86.08
82858;BME280;72620;47.774;9.620;2024-03-07T07:21:48;96546.38;;;4.88;83.80
82858;BME280;72620;47.774;9.620;2024-03-07T07:24:20;96545.59;;;4.99;82.83
82858;BME280;72620;47.774;9.620;2024-03-07T07:26:50;96545.91;;;4.94;83.45
82858;BME280;72620;47.774;9.620;2024-03-07T07:29:17;96557.97;;;4.80;81.29
82858;BME280;72620;47.774;9.620;2024-03-07T07:31:45;96548.63;;;4.80;83.67
82858;BME280;72620;47.774;9.620;2024-03-07T07:34:12;96550.84;;;4.85;83.75
82858;BME280;72620;47.774;9.620;2024-03-07T07:36:40;96552.56;;;4.84;83.03
82858;BME280;72620;47.774;9.620;2024-03-07T07:39:07;96554.53;;;4.81;81.82
82858;BME280;72620;47.774;9.620;2024-03-07T07:41:43;96550.25;;;4.81;83.12
82858;BME280;72620;47.774;9.620;2024-03-07T07:44:11;96560.44;;;4.81;83.35
82858;BME280;72620;47.774;9.620;2024-03-07T07:46:38;96553.88;;;4.90;82.99
82858;BME280;72620;47.774;9.620;2024-03-07T07:49:05;96561.19;;;4.94;83.62
82858;BME280;72620;47.774;9.620;2024-03-07T07:51:32;96553.34;;;4.97;80.37
82858;BME280;72620;47.774;9.620;2024-03-07T07:53:59;96558.53;;;4.96;79.98
82858;BME280;72620;47.774;9.620;2024-03-07T07:56:26;96559.09;;;4.88;81.33
82858;BME280;72620;47.774;9.620;2024-03-07T07:58:55;96558.16;;;4.89;82.33
82858;BME280;72620;47.774;9.620;2024-03-07T08:01:22;96558.16;;;4.89;78.93
82858;BME280;72620;47.774;9.620;2024-03-07T08:03:49;96559.09;;;4.88;80.03
82858;BME280;72620;47.774;9.620;2024-03-07T08:06:16;96557.31;;;4.89;80.19
82858;BME280;72620;47.774;9.620;2024-03-07T08:08:44;96558.16;;;4.89;80.33
82858;BME280;72620;47.774;9.620;2024-03-07T08:11:11;96555.88;;;4.97;80.03
82858;BME280;72620;47.774;9.620;2024-03-07T08:13:40;96552.91;;;5.03;82.63
82858;BME280;72620;47.774;9.620;2024-03-07T08:16:09;96549.66;;;5.01;80.23
82858;BME280;72620;47.774;9.620;2024-03-07T08:18:38;96550.94;;;5.07;80.53
82858;BME280;72620;47.774;9.620;2024-03-07T08:21:06;96550.38;;;5.14;81.37
82858;BME280;72620;47.774;9.620;2024-03-07T08:23:36;96553.19;;;5.23;80.58
82858;BME280;72620;47.774;9.620;2024-03-07T08:26:03;96547.66;;;5.29;83.28
82858;BME280;72620;47.774;9.620;2024-03-07T08:28:32;96548.25;;;5.32;79.52
82858;BME280;72620;47.774;9.620;2024-03-07T08:30:59;96534.44;;;5.24;79.48
82858;BME280;72620;47.774;9.620;2024-03-07T08:33:26;96541.59;;;5.19;81.18
82858;BME280;72620;47.774;9.620;2024-03-07T08:35:54;96534.34;;;5.25;80.54
82858;BME280;72620;47.774;9.620;2024-03-07T08:38:23;96538.19;;;5.31;81.93
82858;BME280;72620;47.774;9.620;2024-03-07T08:40:51;96536.13;;;5.36;79.85
82858;BME280;72620;47.774;9.620;2024-03-07T08:43:19;96532.50;;;5.38;81.26
82858;BME280;72620;47.774;9.620;2024-03-07T08:45:46;96526.84;;;5.35;81.39
82858;BME280;72620;47.774;9.620;2024-03-07T08:48:14;96528.84;;;5.42;82.65
82858;BME280;72620;47.774;9.620;2024-03-07T08:50:41;96529.88;;;5.40;77.96
82858;BME280;72620;47.774;9.620;2024-03-07T08:53:08;96535.19;;;5.37;79.68
82858;BME280;72620;47.774;9.620;2024-03-07T08:55:36;96535.84;;;5.28;78.86
82858;BME280;72620;47.774;9.620;2024-03-07T08:58:04;96525.00;;;5.37;80.21
82858;BME280;72620;47.774;9.620;2024-03-07T09:00:34;96518.50;;;5.33;79.89
82858;BME280;72620;47.774;9.620;2024-03-07T09:03:05;96521.19;;;5.42;80.91
82858;BME280;72620;47.774;9.620;2024-03-07T09:05:38;96515.19;;;5.54;78.92
82858;BME280;72620;47.774;9.620;2024-03-07T09:08:06;96519.38;;;5.66;78.60
82858;BME280;72620;47.774;9.620;2024-03-07T09:10:36;96513.59;;;5.75;80.31
82858;BME280;72620;47.774;9.620;2024-03-07T09:13:03;96508.66;;;5.85;77.79
82858;BME280;72620;47.774;9.620;2024-03-07T09:15:32;96511.78;;;5.89;76.27
82858;BME280;72620;47.774;9.620;2024-03-07T09:18:00;96510.94;;;5.88;78.18
82858;BME280;72620;47.774;9.620;2024-03-07T09:20:28;96516.38;;;6.06;76.06
82858;BME280;72620;47.774;9.620;2024-03-07T09:22:58;96519.97;;;6.14;75.79
82858;BME280;72620;47.774;9.620;2024-03-07T09:25:29;96510.00;;;6.22;76.41
82858;BME280;72620;47.774;9.620;2024-03-07T09:28:00;96512.06;;;6.28;75.02
82858;BME280;72620;47.774;9.620;2024-03-07T09:30:27;96508.00;;;6.37;75.92
82858;BME280;72620;47.774;9.620;2024-03-07T09:32:55;96502.19;;;6.46;77.52
82858;BME280;72620;47.774;9.620;2024-03-07T09:35:23;96504.28;;;6.52;73.24
82858;BME280;72620;47.774;9.620;2024-03-07T09:37:50;96501.00;;;6.61;75.79
82858;BME280;72620;47.774;9.620;2024-03-07T09:40:17;96504.59;;;6.58;74.48
82858;BME280;72620;47.774;9.620;2024-03-07T09:42:47;96509.00;;;6.56;72.67
82858;BME280;72620;47.774;9.620;2024-03-07T09:45:19;96507.84;;;6.61;73.53
82858;BME280;72620;47.774;9.620;2024-03-07T09:47:49;96504.09;;;6.65;74.68
82858;BME280;72620;47.774;9.620;2024-03-07T09:50:21;96497.38;;;6.75;76.33
82858;BME280;72620;47.774;9.620;2024-03-07T09:52:53;96500.47;;;6.78;77.12
82858;BME280;72620;47.774;9.620;2024-03-07T09:55:22;96500.69;;;6.75;76.33
82858;BME280;72620;47.774;9.620;2024-03-07T09:57:54;96497.72;;;6.70;75.41
82858;BME280;72620;47.774;9.620;2024-03-07T10:00:25;96496.31;;;6.66;74.54
82858;BME280;72620;47.774;9.620;2024-03-07T10:03:05;96503.31;;;6.53;73.03
82858;BME280;72620;47.774;9.620;2024-03-07T10:05:34;96498.84;;;6.45;73.88
82858;BME280;72620;47.774;9.620;2024-03-07T10:08:05;96492.66;;;6.48;74.88
82858;BME280;72620;47.774;9.620;2024-03-07T10:10:34;96491.41;;;6.53;73.74
82858;BME280;72620;47.774;9.620;2024-03-07T10:13:01;96495.56;;;6.43;73.55
82858;BME280;72620;47.774;9.620;2024-03-07T10:15:30;96487.47;;;6.49;74.83
82858;BME280;72620;47.774;9.620;2024-03-07T10:17:59;96490.31;;;6.67;74.24
82858;BME280;72620;47.774;9.620;2024-03-07T10:20:30;96495.78;;;6.94;76.00
82858;BME280;72620;47.774;9.620;2024-03-07T10:22:57;96501.00;;;7.13;74.41
82858;BME280;72620;47.774;9.620;2024-03-07T10:25:24;96485.75;;;7.23;74.93
82858;BME280;72620;47.774;9.620;2024-03-07T10:27:55;96485.25;;;7.29;71.79
82858;BME280;72620;47.774;9.620;2024-03-07T10:30:26;96480.56;;;7.34;71.96
82858;BME280;72620;47.774;9.620;2024-03-07T10:32:56;96487.72;;;7.40;71.04
82858;BME280;72620;47.774;9.620;2024-03-07T10:35:28;96489.22;;;7.22;73.54
82858;BME280;72620;47.774;9.620;2024-03-07T10:37:57;96481.69;;;7.20;69.85
82858;BME280;72620;47.774;9.620;2024-03-07T10:40:28;96476.84;;;7.17;68.02
82858;BME280;72620;47.774;9.620;2024-03-07T10:42:58;96477.94;;;7.45;71.08
82858;BME280;72620;47.774;9.620;2024-03-07T10:45:30;96468.53;;;7.66;69.95
82858;BME280;72620;47.774;9.620;2024-03-07T10:48:03;96467.19;;;7.72;67.58
82858;BME280;72620;47.774;9.620;2024-03-07T10:51:01;96466.13;;;7.74;69.58
82858;BME280;72620;47.774;9.620;2024-03-07T10:54:05;96459.56;;;7.81;69.59
82858;BME280;72620;47.774;9.620;2024-03-07T10:59:47;96459.22;;;7.95;68.67
82858;BME280;72620;47.774;9.620;2024-03-07T11:02:41;96446.34;;;8.07;67.97
82858;BME280;72620;47.774;9.620;2024-03-07T11:05:14;96447.56;;;8.22;69.35
82858;BME280;72620;47.774;9.620;2024-03-07T11:07:42;96442.31;;;8.23;68.25
82858;BME280;72620;47.774;9.620;2024-03-07T11:10:12;96436.31;;;8.34;67.90
82858;BME280;72620;47.774;9.620;2024-03-07T11:12:41;96433.38;;;8.38;65.97
82858;BME280;72620;47.774;9.620;2024-03-07T11:15:12;96424.75;;;8.49;68.43
82858;BME280;72620;47.774;9.620;2024-03-07T11:17:47;96426.09;;;8.72;67.32
82858;BME280;72620;47.774;9.620;2024-03-07T11:20:23;96411.41;;;8.84;67.05
82858;BME280;72620;47.774;9.620;2024-03-07T11:22:52;96410.47;;;8.75;64.93
82858;BME280;72620;47.774;9.620;2024-03-07T11:25:22;96416.63;;;9.11;65.69
82858;BME280;72620;47.774;9.620;2024-03-07T11:27:56;96404.63;;;9.11;63.06
82858;BME280;72620;47.774;9.620;2024-03-07T11:30:24;96411.09;;;9.06;63.31
82858;BME280;72620;47.774;9.620;2024-03-07T11:32:54;96403.41;;;9.06;64.77
82858;BME280;72620;47.774;9.620;2024-03-07T11:35:32;96393.59;;;9.01;64.49
82858;BME280;72620;47.774;9.620;2024-03-07T11:38:06;96395.94;;;8.85;66.02
82858;BME280;72620;47.774;9.620;2024-03-07T11:43:03;96384.09;;;8.65;66.34
82858;BME280;72620;47.774;9.620;2024-03-07T11:45:34;96378.97;;;8.55;68.83
82858;BME280;72620;47.774;9.620;2024-03-07T11:48:06;96384.09;;;8.55;67.16
82858;BME280;72620;47.774;9.620;2024-03-07T11:50:40;96381.00;;;8.61;65.69
82858;BME280;72620;47.774;9.620;2024-03-07T11:53:09;96383.44;;;8.63;66.64
82858;BME280;72620;47.774;9.620;2024-03-07T11:55:38;96384.75;;;8.67;65.61
82858;BME280;72620;47.774;9.620;2024-03-07T12:00:45;96379.25;;;8.62;64.79
82858;BME280;72620;47.774;9.620;2024-03-07T12:03:14;96380.72;;;8.74;67.09
82858;BME280;72620;47.774;9.620;2024-03-07T12:05:45;96379.50;;;8.88;64.46
82858;BME280;72620;47.774;9.620;2024-03-07T12:08:13;96375.44;;;8.85;66.77
82858;BME280;72620;47.774;9.620;2024-03-07T12:10:43;96373.16;;;8.72;67.27
82858;BME280;72620;47.774;9.620;2024-03-07T12:13:15;96368.59;;;8.66;69.01
82858;BME280;72620;47.774;9.620;2024-03-07T12:15:43;96363.78;;;8.54;67.83
82858;BME280;72620;47.774;9.620;2024-03-07T12:18:12;96366.72;;;8.59;67.46
82858;BME280;72620;47.774;9.620;2024-03-07T12:20:45;96358.50;;;8.46;67.29
82858;BME280;72620;47.774;9.620;2024-03-07T12:23:22;96353.53;;;8.54;66.95
82858;BME280;72620;47.774;9.620;2024-03-07T12:26:03;96360.81;;;8.49;66.04
82858;BME280;72620;47.774;9.620;2024-03-07T12:28:32;96351.66;;;8.56;66.88
82858;BME280;72620;47.774;9.620;2024-03-07T12:31:06;96351.78;;;8.45;64.67
82858;BME280;72620;47.774;9.620;2024-03-07T12:33:43;96355.94;;;8.36;67.61
82858;BME280;72620;47.774;9.620;2024-03-07T12:36:14;96352.22;;;8.40;69.83
82858;BME280;72620;47.774;9.620;2024-03-07T12:38:43;96361.38;;;8.43;67.99
82858;BME280;72620;47.774;9.620;2024-03-07T12:41:11;96357.31;;;8.40;67.30
82858;BME280;72620;47.774;9.620;2024-03-07T12:43:43;96360.81;;;8.39;66.64
82858;BME280;72620;47.774;9.620;2024-03-07T12:46:13;96362.84;;;8.36;67.80
82858;BME280;72620;47.774;9.620;2024-03-07T12:48:43;96354.22;;;8.37;66.29
82858;BME280;72620;47.774;9.620;2024-03-07T12:51:13;96358.25;;;8.30;66.00
82858;BME280;72620;47.774;9.620;2024-03-07T12:53:47;96355.56;;;8.31;66.46
82858;BME280;72620;47.774;9.620;2024-03-07T12:56:15;96356.63;;;8.29;65.72
82858;BME280;72620;47.774;9.620;2024-03-07T12:58:46;96359.69;;;8.23;66.84
82858;BME280;72620;47.774;9.620;2024-03-07T13:01:15;96359.13;;;8.10;66.00
82858;BME280;72620;47.774;9.620;2024-03-07T13:03:46;96361.16;;;8.06;66.57
82858;BME280;72620;47.774;9.620;2024-03-07T13:06:17;96354.44;;;8.05;66.70
82858;BME280;72620;47.774;9.620;2024-03-07T13:08:53;96356.44;;;8.01;67.57
82858;BME280;72620;47.774;9.620;2024-03-07T13:11:21;96349.72;;;8.00;70.04
82858;BME280;72620;47.774;9.620;2024-03-07T13:13:48;96347.41;;;7.88;69.65
82858;BME280;72620;47.774;9.620;2024-03-07T13:16:15;96348.47;;;7.76;68.98
82858;BME280;72620;47.774;9.620;2024-03-07T13:18:42;96341.22;;;7.81;69.70
82858;BME280;72620;47.774;9.620;2024-03-07T13:21:10;96347.03;;;7.92;68.30
82858;BME280;72620;47.774;9.620;2024-03-07T13:23:38;96344.75;;;7.99;69.32
82858;BME280;72620;47.774;9.620;2024-03-07T13:26:08;96340.56;;;8.07;67.93
82858;BME280;72620;47.774;9.620;2024-03-07T13:28:43;96342.31;;;8.07;69.25